Costa Victoria — IBLC — position and weather

sailwx.info

Track history (hours):
 
Tides and Currents Weather Stations Pressure Air Temp Water Temp Dewpoint Dewpoint Depression Visibility Wind Speed Wind Dir Waves Ship Positions

Costa Victoria

Last reported at 2017-Apr-23 10:00 UTC. Time now 2017-Apr-24 11:22 UTC.
Position N 24°14' E 118°16'.

Length 253 m; draft 8 m.

Type: Ship. MMSI: 247109000.

Date/timePositionNaut miles runAvg speedWind from/ knotsBaromVisibWave heightAir tempDewpointWater temp
2017-Apr-23 10:00N 24°14' E 118°16'714.7
2017-Apr-23 09:30N 24°20' E 118°11'612.1
2017-Apr-23 09:00N 24°24' E 118°06'510.3
2017-Apr-23 08:30N 24°28' E 118°03'1 1.6
2017-Apr-23 07:52N 24°29' E 118°04'0 0.0
2017-Apr-23 07:28N 24°29' E 118°04'0 0.0
2017-Apr-23 06:52N 24°29' E 118°04'0 0.0
2017-Apr-23 06:28N 24°29' E 118°04'0 0.0
2017-Apr-23 05:52N 24°29' E 118°04'0 0.0
2017-Apr-23 05:28N 24°29' E 118°04'0 0.0
2017-Apr-23 04:58N 24°29' E 118°04'0 0.0
2017-Apr-23 04:28N 24°29' E 118°04'0 0.0
2017-Apr-23 03:46N 24°29' E 118°04'0 0.0
2017-Apr-23 03:22N 24°29' E 118°04'0 0.0
2017-Apr-23 02:58N 24°29' E 118°04'0 0.0
2017-Apr-23 02:28N 24°29' E 118°04'0 0.0
2017-Apr-23 01:46N 24°29' E 118°04'0 0.0
2017-Apr-23 01:28N 24°29' E 118°04'0 0.0
2017-Apr-23 00:49N 24°29' E 118°04'0 0.0
2017-Apr-23 00:16N 24°29' E 118°04'0 0.1
2017-Apr-23 00:00N 24°29' E 118°04'3 5.2
2017-Apr-22 23:30N 24°27' E 118°03'612.8
2017-Apr-22 23:01N 24°22' E 118°08'510.1
2017-Apr-22 22:30N 24°19' E 118°12'714.0
2017-Apr-22 22:00N 24°14' E 118°17'815.8
2017-Apr-22 21:30N 24°11' E 118°25'915.3
2017-Apr-22 20:56N 24°11' E 118°35'14 7.5
2017-Apr-22 19:06N 24°14' E 118°49'5 7.6
2017-Apr-22 18:27N 24°16' E 118°54'3 7.6
2017-Apr-22 18:01N 24°18' E 118°57'5 7.7
2017-Apr-22 17:21N 24°20' E 119°02'  
2017-Apr-19 19:22N 24°10' E 118°39'4 8.5
2017-Apr-19 18:55N 24°10' E 118°34'4 8.4
2017-Apr-19 18:28N 24°10' E 118°30'4 8.2
2017-Apr-19 18:00N 24°10' E 118°26'713.5
2017-Apr-19 17:30N 24°12' E 118°19'714.6
2017-Apr-19 17:00N 24°17' E 118°13'714.5
2017-Apr-19 16:30N 24°22' E 118°08'612.5
2017-Apr-19 16:01N 24°26' E 118°03'3 6.4
2017-Apr-19 15:30N 24°29' E 118°04'0 0.0
2017-Apr-19 14:54N 24°29' E 118°04'0 0.0
2017-Apr-19 14:30N 24°29' E 118°04'0 0.0
2017-Apr-19 13:18N 24°29' E 118°04'0 0.0
2017-Apr-19 12:54N 24°29' E 118°04'0 0.0
2017-Apr-19 12:30N 24°29' E 118°04'0 0.0
2017-Apr-19 12:00N 24°29' E 118°04'0 0.0
2017-Apr-19 11:30N 24°29' E 118°04'0 0.0
2017-Apr-19 10:45N 24°29' E 118°04'0 0.0
2017-Apr-19 10:30N 24°29' E 118°04'0 0.0
2017-Apr-19 10:00N 24°29' E 118°04'3 6.2
2017-Apr-19 09:30N 24°26' E 118°03'612.2
2017-Apr-19 09:00N 24°22' E 118°08'611.2
2017-Apr-19 08:31N 24°18' E 118°12'815.5
2017-Apr-19 08:00N 24°12' E 118°16'3 5.0
2017-Apr-19 07:29N 24°09' E 118°17'0 0.0
2017-Apr-19 06:05N 24°09' E 118°17'0 0.6
2017-Apr-19 05:59N 24°09' E 118°17'0 0.1
2017-Apr-19 05:23N 24°09' E 118°17'0 0.0
2017-Apr-19 04:41N 24°09' E 118°17'0 0.1
2017-Apr-19 04:29N 24°09' E 118°17'3 7.1
2017-Apr-19 04:00N 24°09' E 118°21'815.5
2017-Apr-19 03:29N 24°11' E 118°29'918.0
2017-Apr-19 03:00N 24°11' E 118°39'1617.4
2017-Apr-19 02:07N 24°18' E 118°54'518.0
2017-Apr-19 01:50N 24°21' E 118°58'617.5
2017-Apr-19 01:30N 24°24' E 119°03'1117.6
2017-Apr-19 00:52N 24°30' E 119°14'  
2017-Apr-14 09:47N 24°10' E 118°29'518.6
2017-Apr-14 09:30N 24°09' E 118°23'815.7
2017-Apr-14 09:00N 24°14' E 118°16'816.2
2017-Apr-14 08:31N 24°20' E 118°11'713.5
2017-Apr-14 08:00N 24°24' E 118°06'5 9.9
2017-Apr-14 07:30N 24°29' E 118°04'0 0.3
2017-Apr-14 06:55N 24°29' E 118°04'0 0.0
2017-Apr-14 06:25N 24°29' E 118°04'0 0.0
2017-Apr-14 05:49N 24°29' E 118°04'0 0.0
2017-Apr-14 05:25N 24°29' E 118°04'0 0.0
2017-Apr-14 04:49N 24°29' E 118°04'0 0.0
2017-Apr-14 04:13N 24°29' E 118°04'0 0.0
2017-Apr-14 03:55N 24°29' E 118°04'0 0.0
2017-Apr-14 03:13N 24°29' E 118°04'0 0.0
2017-Apr-14 02:55N 24°29' E 118°04'0 0.0
2017-Apr-14 02:25N 24°29' E 118°04'0 0.0
2017-Apr-14 01:55N 24°29' E 118°04'0 0.0
2017-Apr-14 01:25N 24°29' E 118°04'0 0.0
2017-Apr-14 00:49N 24°29' E 118°04'0 0.0
2017-Apr-14 00:19N 24°29' E 118°04'0 0.0
2017-Apr-13 23:55N 24°29' E 118°04'0 0.0
2017-Apr-13 23:01N 24°29' E 118°04'0 0.0
2017-Apr-13 22:43N 24°29' E 118°04'0 0.4
2017-Apr-13 22:30N 24°29' E 118°04'3 6.6
2017-Apr-13 22:00N 24°26' E 118°03'612.1
2017-Apr-13 21:30N 24°22' E 118°08'714.3
2017-Apr-13 21:01N 24°17' E 118°14'713.7
2017-Apr-13 20:29N 24°11' E 118°19'5 9.5
2017-Apr-13 19:59N 24°11' E 118°24'510.6
2017-Apr-13 19:30N 24°11' E 118°29'510.5
2017-Apr-13 18:59N 24°12' E 118°35'510.3
2017-Apr-13 18:30N 24°11' E 118°41'510.4
2017-Apr-13 18:00N 24°12' E 118°46'610.3
2017-Apr-13 17:27N 24°15' E 118°52'510.1
2017-Apr-13 16:57N 24°17' E 118°57'410.0
2017-Apr-13 16:30N 24°19' E 119°01'  
Track history (hours):
 
Tides and Currents Weather Stations Pressure Air Temp Water Temp Dewpoint Dewpoint Depression Visibility Wind Speed Wind Dir Waves Ship Positions

Costa Victoria

Last reported at 2017-Apr-23 10:00 UTC. Time now 2017-Apr-24 11:22 UTC.
Position N 24°14' E 118°16'.

Length 253 m; draft 8 m.

Type: Ship. MMSI: 247109000.

Date/timePositionNaut miles runAvg speedWind from/ knotsBaromVisibWave heightAir tempDewpointWater temp
2017-Apr-23 10:00N 24°14' E 118°16'714.7
2017-Apr-23 09:30N 24°20' E 118°11'612.1
2017-Apr-23 09:00N 24°24' E 118°06'510.3
2017-Apr-23 08:30N 24°28' E 118°03'1 1.6
2017-Apr-23 07:52N 24°29' E 118°04'0 0.0
2017-Apr-23 07:28N 24°29' E 118°04'0 0.0
2017-Apr-23 06:52N 24°29' E 118°04'0 0.0
2017-Apr-23 06:28N 24°29' E 118°04'0 0.0
2017-Apr-23 05:52N 24°29' E 118°04'0 0.0
2017-Apr-23 05:28N 24°29' E 118°04'0 0.0
2017-Apr-23 04:58N 24°29' E 118°04'0 0.0
2017-Apr-23 04:28N 24°29' E 118°04'0 0.0
2017-Apr-23 03:46N 24°29' E 118°04'0 0.0
2017-Apr-23 03:22N 24°29' E 118°04'0 0.0
2017-Apr-23 02:58N 24°29' E 118°04'0 0.0
2017-Apr-23 02:28N 24°29' E 118°04'0 0.0
2017-Apr-23 01:46N 24°29' E 118°04'0 0.0
2017-Apr-23 01:28N 24°29' E 118°04'0 0.0
2017-Apr-23 00:49N 24°29' E 118°04'0 0.0
2017-Apr-23 00:16N 24°29' E 118°04'0 0.1
2017-Apr-23 00:00N 24°29' E 118°04'3 5.2
2017-Apr-22 23:30N 24°27' E 118°03'612.8
2017-Apr-22 23:01N 24°22' E 118°08'510.1
2017-Apr-22 22:30N 24°19' E 118°12'714.0
2017-Apr-22 22:00N 24°14' E 118°17'815.8
2017-Apr-22 21:30N 24°11' E 118°25'915.3
2017-Apr-22 20:56N 24°11' E 118°35'14 7.5
2017-Apr-22 19:06N 24°14' E 118°49'5 7.6
2017-Apr-22 18:27N 24°16' E 118°54'3 7.6
2017-Apr-22 18:01N 24°18' E 118°57'5 7.7
2017-Apr-22 17:21N 24°20' E 119°02'  
2017-Apr-19 19:22N 24°10' E 118°39'4 8.5
2017-Apr-19 18:55N 24°10' E 118°34'4 8.4
2017-Apr-19 18:28N 24°10' E 118°30'4 8.2
2017-Apr-19 18:00N 24°10' E 118°26'713.5
2017-Apr-19 17:30N 24°12' E 118°19'714.6
2017-Apr-19 17:00N 24°17' E 118°13'714.5
2017-Apr-19 16:30N 24°22' E 118°08'612.5
2017-Apr-19 16:01N 24°26' E 118°03'3 6.4
2017-Apr-19 15:30N 24°29' E 118°04'0 0.0
2017-Apr-19 14:54N 24°29' E 118°04'0 0.0
2017-Apr-19 14:30N 24°29' E 118°04'0 0.0
2017-Apr-19 13:18N 24°29' E 118°04'0 0.0
2017-Apr-19 12:54N 24°29' E 118°04'0 0.0
2017-Apr-19 12:30N 24°29' E 118°04'0 0.0
2017-Apr-19 12:00N 24°29' E 118°04'0 0.0
2017-Apr-19 11:30N 24°29' E 118°04'0 0.0
2017-Apr-19 10:45N 24°29' E 118°04'0 0.0
2017-Apr-19 10:30N 24°29' E 118°04'0 0.0
2017-Apr-19 10:00N 24°29' E 118°04'3 6.2
2017-Apr-19 09:30N 24°26' E 118°03'612.2
2017-Apr-19 09:00N 24°22' E 118°08'611.2
2017-Apr-19 08:31N 24°18' E 118°12'815.5
2017-Apr-19 08:00N 24°12' E 118°16'3 5.0
2017-Apr-19 07:29N 24°09' E 118°17'0 0.0
2017-Apr-19 06:05N 24°09' E 118°17'0 0.6
2017-Apr-19 05:59N 24°09' E 118°17'0 0.1
2017-Apr-19 05:23N 24°09' E 118°17'0 0.0
2017-Apr-19 04:41N 24°09' E 118°17'0 0.1
2017-Apr-19 04:29N 24°09' E 118°17'3 7.1
2017-Apr-19 04:00N 24°09' E 118°21'815.5
2017-Apr-19 03:29N 24°11' E 118°29'918.0
2017-Apr-19 03:00N 24°11' E 118°39'1617.4
2017-Apr-19 02:07N 24°18' E 118°54'518.0
2017-Apr-19 01:50N 24°21' E 118°58'617.5
2017-Apr-19 01:30N 24°24' E 119°03'1117.6
2017-Apr-19 00:52N 24°30' E 119°14'  
2017-Apr-14 09:47N 24°10' E 118°29'518.6
2017-Apr-14 09:30N 24°09' E 118°23'815.7
2017-Apr-14 09:00N 24°14' E 118°16'816.2
2017-Apr-14 08:31N 24°20' E 118°11'713.5
2017-Apr-14 08:00N 24°24' E 118°06'5 9.9
2017-Apr-14 07:30N 24°29' E 118°04'0 0.3
2017-Apr-14 06:55N 24°29' E 118°04'0 0.0
2017-Apr-14 06:25N 24°29' E 118°04'0 0.0
2017-Apr-14 05:49N 24°29' E 118°04'0 0.0
2017-Apr-14 05:25N 24°29' E 118°04'0 0.0
2017-Apr-14 04:49N 24°29' E 118°04'0 0.0
2017-Apr-14 04:13N 24°29' E 118°04'0 0.0
2017-Apr-14 03:55N 24°29' E 118°04'0 0.0
2017-Apr-14 03:13N 24°29' E 118°04'0 0.0
2017-Apr-14 02:55N 24°29' E 118°04'0 0.0
2017-Apr-14 02:25N 24°29' E 118°04'0 0.0
2017-Apr-14 01:55N 24°29' E 118°04'0 0.0
2017-Apr-14 01:25N 24°29' E 118°04'0 0.0
2017-Apr-14 00:49N 24°29' E 118°04'0 0.0
2017-Apr-14 00:19N 24°29' E 118°04'0 0.0
2017-Apr-13 23:55N 24°29' E 118°04'0 0.0
2017-Apr-13 23:01N 24°29' E 118°04'0 0.0
2017-Apr-13 22:43N 24°29' E 118°04'0 0.4
2017-Apr-13 22:30N 24°29' E 118°04'3 6.6
2017-Apr-13 22:00N 24°26' E 118°03'612.1
2017-Apr-13 21:30N 24°22' E 118°08'714.3
2017-Apr-13 21:01N 24°17' E 118°14'713.7
2017-Apr-13 20:29N 24°11' E 118°19'5 9.5
2017-Apr-13 19:59N 24°11' E 118°24'510.6
2017-Apr-13 19:30N 24°11' E 118°29'510.5
2017-Apr-13 18:59N 24°12' E 118°35'510.3
2017-Apr-13 18:30N 24°11' E 118°41'510.4
2017-Apr-13 18:00N 24°12' E 118°46'610.3
2017-Apr-13 17:27N 24°15' E 118°52'510.1
2017-Apr-13 16:57N 24°17' E 118°57'410.0
2017-Apr-13 16:30N 24°19' E 119°01'  

Dump ship's entire track history